Time;durP1;ratioP1;P1;durP2;ratioP2;P2;SDS_P1;SDS_P2;PMS_P1;PMS_P2;Temp;Humidity;BMP_temperature;BMP_pressure;BME280_temperature;BME280_humidity;BME280_pressure;Samples;Min_cycle;Max_cycle;Signal;HPM_P1;HPM_P2
2022/02/07 00:00:47;;;;;;;;;46.75;38.50;14.20;39.20;;;;;;4937309;29;8819;-65
2022/02/07 00:03:59;;;;;;;;;54.25;45.75;14.40;38.80;;;;;;4937116;28;8783;-63
2022/02/07 00:06:04;;;;;;;;;57.75;47.75;14.50;38.40;;;;;;4931659;29;8905;-62
2022/02/07 00:08:29;;;;;;;;;80.25;65.00;14.30;39.00;;;;;;4936914;29;8803;-64
2022/02/07 00:10:55;;;;;;;;;54.00;45.25;14.60;39.00;;;;;;4937027;29;8798;-64
2022/02/07 00:13:21;;;;;;;;;51.75;41.75;14.60;37.80;;;;;;4936841;29;8822;-63
2022/02/07 00:15:47;;;;;;;;;44.00;39.00;14.70;37.60;;;;;;4936959;29;8809;-64
2022/02/07 00:18:13;;;;;;;;;52.75;43.75;14.70;37.50;;;;;;4936875;29;8798;-62
2022/02/07 00:20:39;;;;;;;;;41.00;35.25;14.60;38.40;;;;;;4937189;29;8894;-66
2022/02/07 00:23:05;;;;;;;;;43.00;37.00;14.50;38.10;;;;;;4937108;29;8896;-63
2022/02/07 00:25:31;;;;;;;;;38.50;37.00;14.70;38.10;;;;;;4936909;29;8782;-63
2022/02/07 00:27:57;;;;;;;;;46.50;39.50;14.90;37.60;;;;;;4936799;29;8795;-63
2022/02/07 00:30:23;;;;;;;;;49.00;39.75;14.90;37.90;;;;;;4937004;29;8826;-63
2022/02/07 00:32:50;;;;;;;;;54.50;46.75;15.10;37.50;;;;;;4936535;29;8823;-64
2022/02/07 00:35:19;;;;;;;;;58.00;46.00;15.20;37.10;;;;;;4936824;29;8782;-64
2022/02/07 00:37:47;;;;;;;;;56.50;45.00;15.20;37.00;;;;;;4936790;29;8807;-64
2022/02/07 00:43:14;;;;;;;;;73.50;55.00;15.20;37.00;;;;;;4936927;29;8885;-63
2022/02/07 00:48:00;;;;;;;;;72.00;56.00;14.90;37.90;;;;;;4936768;29;8771;-65
2022/02/07 00:50:32;;;;;;;;;65.00;54.75;14.90;37.90;;;;;;4936895;29;8779;-65
2022/02/07 00:52:59;;;;;;;;;60.25;49.75;15.00;37.90;;;;;;4936524;29;8826;-64
2022/02/07 00:55:24;;;;;;;;;60.00;49.25;14.90;37.70;;;;;;4936983;29;8806;-63
2022/02/07 00:57:50;;;;;;;;;58.50;48.25;14.70;39.30;;;;;;4940260;29;8787;-63
2022/02/07 01:00:17;;;;;;;;;55.25;45.00;14.50;38.50;;;;;;4940307;29;8815;-63
2022/02/07 01:02:43;;;;;;;;;51.25;42.75;14.20;39.10;;;;;;4940091;29;8862;-63
2022/02/07 01:05:10;;;;;;;;;62.25;47.00;14.30;38.90;;;;;;4940047;29;8779;-64
2022/02/07 01:07:36;;;;;;;;;47.50;39.00;14.50;39.00;;;;;;4939837;29;8767;-64
2022/02/07 01:10:04;;;;;;;;;50.25;40.75;14.40;38.80;;;;;;4940145;29;8841;-64
2022/02/07 01:52:51;;;;;;;;;29.50;29.25;14.80;38.00;;;;;;4939310;29;8791;-65
2022/02/07 01:55:17;;;;;;;;;33.75;30.75;14.90;37.90;;;;;;4938828;29;8839;-63
2022/02/07 01:57:46;;;;;;;;;28.50;26.25;14.90;37.90;;;;;;4939346;29;8794;-65
2022/02/07 02:00:13;;;;;;;;;29.50;27.75;14.90;38.10;;;;;;4938160;29;8849;-65
2022/02/07 02:02:39;;;;;;;;;24.25;24.00;14.90;38.00;;;;;;4939235;29;9472;-63
2022/02/07 02:05:05;;;;;;;;;27.25;27.25;15.00;37.80;;;;;;4939135;29;8801;-64
2022/02/07 02:07:31;;;;;;;;;26.00;25.50;14.90;38.30;;;;;;4938657;29;8783;-63
2022/02/07 02:09:57;;;;;;;;;30.00;27.00;14.90;38.10;;;;;;4939115;29;8779;-64
2022/02/07 02:12:27;;;;;;;;;29.50;29.50;15.00;37.90;;;;;;4938796;29;8790;-63
2022/02/07 02:15:14;;;;;;;;;33.50;29.75;14.90;37.70;;;;;;4939004;29;8842;-65
2022/02/07 02:34:59;;;;;;;;;23.25;22.75;14.40;39.40;;;;;;4938463;29;8807;-63
2022/02/07 02:37:22;;;;;;;;;40.50;32.00;14.40;38.90;;;;;;4938326;29;8892;-64
2022/02/07 02:45:50;;;;;;;;;29.25;27.25;14.70;38.70;;;;;;4938291;29;8775;-64
2022/02/07 02:48:22;;;;;;;;;29.25;26.25;14.70;38.40;;;;;;4936981;29;8841;-64
2022/02/07 02:50:51;;;;;;;;;35.25;29.50;14.80;38.20;;;;;;4938174;29;8814;-64
2022/02/07 02:53:18;;;;;;;;;27.00;25.50;14.90;38.00;;;;;;4937978;29;8818;-63
2022/02/07 02:55:46;;;;;;;;;32.25;31.25;15.00;37.90;;;;;;4937878;29;8795;-63
2022/02/07 02:58:15;;;;;;;;;31.25;29.50;14.90;38.20;;;;;;4937905;29;8783;-65
2022/02/07 03:00:42;;;;;;;;;28.75;27.00;14.80;38.20;;;;;;4937887;29;8846;-63
2022/02/07 03:03:08;;;;;;;;;28.00;24.75;14.90;38.00;;;;;;4937897;29;8775;-63
2022/02/07 03:05:34;;;;;;;;;30.00;24.75;14.70;38.40;;;;;;4937857;29;8914;-63
2022/02/07 03:08:01;;;;;;;;;30.25;27.50;14.80;38.20;;;;;;4938090;29;8786;-64
2022/02/07 03:10:46;;;;;;;;;30.75;25.75;14.70;38.60;;;;;;4938070;29;8775;-63
2022/02/07 03:13:33;;;;;;;;;28.00;24.00;14.90;38.20;;;;;;4937707;29;8814;-65
2022/02/07 03:18:43;;;;;;;;;29.75;24.75;14.90;38.30;;;;;;4937163;29;8775;-64
2022/02/07 03:21:09;;;;;;;;;36.00;32.75;14.90;37.80;;;;;;4937596;29;8818;-65
2022/02/07 03:23:35;;;;;;;;;33.25;31.25;14.90;38.10;;;;;;4937790;29;8798;-64
2022/02/07 03:26:01;;;;;;;;;25.75;25.75;14.90;38.20;;;;;;4937487;29;8799;-65
2022/02/07 03:28:28;;;;;;;;;27.00;25.50;14.80;38.10;;;;;;4937487;29;8986;-64
2022/02/07 03:30:54;;;;;;;;;31.75;26.50;14.90;38.10;;;;;;4937306;29;8802;-63
2022/02/07 03:33:21;;;;;;;;;25.75;25.00;14.90;38.20;;;;;;4937334;29;8897;-63
2022/02/07 03:35:47;;;;;;;;;30.67;27.67;15.10;37.90;;;;;;4937638;29;9405;-63
2022/02/07 03:38:13;;;;;;;;;23.75;23.75;15.10;37.80;;;;;;4937344;29;8796;-64
2022/02/07 03:40:39;;;;;;;;;26.33;23.33;15.10;37.60;;;;;;4937285;29;8778;-64
2022/02/07 03:43:05;;;;;;;;;24.25;22.00;15.10;37.70;;;;;;4937163;29;8850;-63
2022/02/07 03:45:31;;;;;;;;;26.33;24.00;15.10;37.60;;;;;;4937261;29;8798;-65
2022/02/07 03:47:57;;;;;;;;;30.75;29.00;15.00;37.90;;;;;;4937239;29;8917;-64
2022/02/07 03:50:23;;;;;;;;;32.50;32.25;14.90;37.90;;;;;;4937470;29;8815;-64
2022/02/07 03:52:52;;;;;;;;;32.00;29.00;15.00;37.80;;;;;;4937085;29;8984;-63
2022/02/07 03:55:18;;;;;;;;;37.00;35.00;14.90;38.20;;;;;;4937184;29;8802;-62
2022/02/07 03:57:44;;;;;;;;;31.25;28.75;14.80;38.30;;;;;;4937345;29;8771;-63
2022/02/07 04:00:11;;;;;;;;;28.00;26.00;14.80;38.50;;;;;;4936999;29;8819;-64
2022/02/07 04:02:42;;;;;;;;;25.50;24.00;14.90;38.00;;;;;;4937368;29;8937;-63
2022/02/07 04:05:54;;;;;;;;;27.00;25.00;14.80;38.20;;;;;;4936471;29;8787;-64
2022/02/07 04:07:58;;;;;;;;;24.00;24.00;14.90;37.90;;;;;;4934056;29;8836;-64
2022/02/07 04:10:25;;;;;;;;;19.00;19.00;15.00;38.00;;;;;;4937216;29;8783;-63
2022/02/07 04:12:57;;;;;;;;;20.67;19.67;15.00;37.90;;;;;;4936822;29;8838;-64
2022/02/07 04:15:23;;;;;;;;;21.00;20.00;15.00;37.90;;;;;;4936978;29;8787;-65
2022/02/07 04:17:56;;;;;;;;;21.00;15.33;15.00;38.20;;;;;;4937193;29;8790;-64
2022/02/07 04:20:21;;;;;;;;;20.00;19.33;14.70;39.10;;;;;;4936950;29;8811;-64
2022/02/07 04:22:48;;;;;;;;;21.33;19.67;14.20;39.50;;;;;;4936895;29;8790;-65
2022/02/07 04:25:14;;;;;;;;;25.33;23.67;14.20;39.80;;;;;;4937238;29;8795;-64
2022/02/07 04:27:40;;;;;;;;;24.25;24.25;14.30;40.60;;;;;;4936793;29;8821;-64
2022/02/07 04:30:07;;;;;;;;;21.33;21.33;14.50;39.20;;;;;;4938100;29;8815;-65
2022/02/07 04:32:33;;;;;;;;;24.50;23.00;14.80;38.80;;;;;;4940470;29;8833;-64
2022/02/07 04:34:59;;;;;;;;;29.50;29.00;14.90;38.50;;;;;;4940587;29;8787;-65
2022/02/07 04:37:25;;;;;;;;;30.25;28.00;14.90;38.20;;;;;;4940800;29;8774;-64
2022/02/07 04:39:53;;;;;;;;;52.50;44.75;14.90;38.40;;;;;;4940532;29;8803;-64
2022/02/07 04:42:21;;;;;;;;;32.50;31.00;14.60;38.80;;;;;;4940747;29;8774;-63
2022/02/07 04:48:11;;;;;;;;;36.50;33.00;14.80;38.50;;;;;;4940465;29;8776;-64
2022/02/07 04:50:46;;;;;;;;;24.75;24.25;14.80;38.40;;;;;;4940250;29;8881;-65
2022/02/07 04:59:09;;;;;;;;;32.75;31.75;14.80;38.60;;;;;;4919138;29;8884;-63
2022/02/07 05:03:59;;;;;;;;;36.25;34.00;15.10;38.10;;;;;;4918974;29;8789;-64
2022/02/07 05:14:41;;;;;;;;;37.00;34.25;14.80;38.90;;;;;;4918928;29;8813;-63
2022/02/07 05:17:09;;;;;;;;;37.50;34.50;14.90;38.60;;;;;;4918779;29;8948;-63
2022/02/07 05:19:35;;;;;;;;;44.50;38.50;15.00;38.40;;;;;;4918780;29;8809;-65
2022/02/07 05:22:00;;;;;;;;;43.75;38.25;15.00;38.50;;;;;;4918620;29;8912;-65
2022/02/07 05:24:26;;;;;;;;;48.25;39.50;15.10;38.30;;;;;;4918582;29;8805;-63
2022/02/07 05:26:52;;;;;;;;;46.50;40.50;15.00;38.40;;;;;;4918555;29;8888;-65
2022/02/07 05:29:18;;;;;;;;;38.50;35.00;14.60;38.90;;;;;;4927719;29;8829;-65
2022/02/07 05:31:43;;;;;;;;;34.50;34.25;14.60;39.10;;;;;;4939572;29;8859;-64
2022/02/07 05:34:10;;;;;;;;;44.25;38.00;14.30;39.80;;;;;;4939364;29;8814;-63
2022/02/07 05:36:41;;;;;;;;;37.00;32.50;14.60;39.60;;;;;;4939539;29;8779;-64
2022/02/07 05:39:08;;;;;;;;;45.50;39.25;14.80;39.20;;;;;;4939424;29;8779;-64
2022/02/07 05:41:33;;;;;;;;;37.00;34.75;14.90;39.00;;;;;;4938829;29;8891;-65
2022/02/07 05:44:00;;;;;;;;;49.75;41.75;15.10;39.00;;;;;;4939348;29;8909;-64
2022/02/07 05:46:26;;;;;;;;;50.50;43.50;15.30;39.00;;;;;;4939396;29;8795;-63
2022/02/07 05:48:51;;;;;;;;;49.00;42.50;15.30;38.70;;;;;;4939289;29;9390;-63
2022/02/07 05:51:17;;;;;;;;;58.25;47.50;15.40;38.50;;;;;;4939387;29;8858;-62
2022/02/07 05:53:43;;;;;;;;;62.25;50.25;15.30;38.50;;;;;;4939065;29;8798;-63
2022/02/07 05:56:09;;;;;;;;;72.00;57.00;15.30;39.50;;;;;;4942279;28;8798;-63
2022/02/07 05:58:35;;;;;;;;;73.75;58.50;15.40;38.70;;;;;;4943182;29;8779;-62
2022/02/07 06:01:01;;;;;;;;;71.25;57.25;15.40;39.20;;;;;;4953178;28;8836;-63
2022/02/07 06:03:26;;;;;;;;;72.75;58.25;15.40;39.20;;;;;;4958324;28;8807;-63
2022/02/07 06:05:52;;;;;;;;;81.25;63.50;15.50;38.70;;;;;;4941129;29;8787;-63
2022/02/07 06:08:18;;;;;;;;;93.00;86.25;15.50;38.40;;;;;;4938708;29;8825;-63
2022/02/07 06:10:45;;;;;;;;;103.50;95.00;15.50;38.20;;;;;;4943925;28;8899;-63
2022/02/07 06:13:13;;;;;;;;;100.00;88.00;15.50;38.30;;;;;;4949304;28;9606;-63
2022/02/07 06:15:39;;;;;;;;;89.00;77.50;15.60;38.40;;;;;;4941184;28;8807;-63
2022/02/07 06:18:05;;;;;;;;;82.25;71.75;15.40;38.20;;;;;;4951026;28;9462;-63
2022/02/07 06:20:31;;;;;;;;;80.50;66.25;15.40;38.30;;;;;;4947180;28;8902;-63
2022/02/07 06:22:56;;;;;;;;;83.25;71.50;15.40;38.70;;;;;;4952341;28;8792;-63
2022/02/07 06:25:22;;;;;;;;;84.75;71.00;15.40;38.80;;;;;;4957455;28;8854;-63
2022/02/07 06:27:50;;;;;;;;;85.00;74.00;15.40;38.60;;;;;;4951018;28;8779;-63
2022/02/07 06:30:16;;;;;;;;;83.75;73.50;15.40;38.80;;;;;;4945673;28;8941;-62
2022/02/07 06:32:42;;;;;;;;;84.25;72.75;15.50;38.60;;;;;;4948592;29;8945;-62
2022/02/07 06:35:08;;;;;;;;;88.00;76.50;15.50;38.60;;;;;;4944405;29;8917;-61
2022/02/07 06:37:35;;;;;;;;;80.25;70.50;15.50;38.60;;;;;;4946631;28;8863;-62
2022/02/07 06:40:01;;;;;;;;;87.75;83.50;15.50;39.40;;;;;;4951212;28;8840;-62
2022/02/07 06:42:26;;;;;;;;;89.00;80.25;15.40;38.60;;;;;;4957375;28;8778;-62
2022/02/07 06:44:52;;;;;;;;;89.25;84.50;15.40;39.50;;;;;;4951582;28;8817;-62
2022/02/07 06:47:18;;;;;;;;;95.75;86.00;15.40;39.80;;;;;;4945606;29;8869;-62
2022/02/07 06:49:43;;;;;;;;;109.25;98.75;15.40;39.80;;;;;;4940418;28;8772;-62
2022/02/07 06:52:10;;;;;;;;;101.75;93.50;15.50;39.30;;;;;;4946586;29;8923;-62
2022/02/07 06:54:35;;;;;;;;;103.75;91.00;15.50;39.60;;;;;;4937334;29;8823;-62
2022/02/07 06:57:02;;;;;;;;;87.75;78.00;15.40;39.20;;;;;;4959737;28;8778;-62
2022/02/07 06:59:32;;;;;;;;;107.25;97.00;15.40;39.40;;;;;;4976363;28;8789;-62
2022/02/07 07:01:58;;;;;;;;;109.00;101.00;15.40;39.10;;;;;;4976647;28;9493;-62
2022/02/07 07:04:27;;;;;;;;;119.75;109.25;15.30;39.20;;;;;;4976439;28;8774;-62
2022/02/07 07:06:53;;;;;;;;;133.50;123.00;15.30;39.30;;;;;;4955306;28;8784;-62
2022/02/07 07:09:19;;;;;;;;;150.75;139.75;15.10;39.50;;;;;;4947315;28;8826;-62
2022/02/07 07:11:45;;;;;;;;;161.75;149.25;15.20;39.40;;;;;;4947537;28;8807;-61
2022/02/07 07:14:17;;;;;;;;;165.00;137.50;15.20;39.30;;;;;;4949455;28;8871;-62
2022/02/07 07:16:50;;;;;;;;;134.75;124.75;15.30;39.40;;;;;;4947597;28;8804;-61
2022/02/07 07:19:17;;;;;;;;;135.00;125.25;15.40;39.40;;;;;;4956674;28;8869;-61
2022/02/07 07:21:44;;;;;;;;;151.25;144.75;15.50;40.10;;;;;;4956616;28;8792;-62
2022/02/07 07:24:10;;;;;;;;;181.00;168.75;15.50;39.10;;;;;;4949348;28;8866;-62
2022/02/07 07:26:36;;;;;;;;;190.25;170.50;15.50;39.10;;;;;;4956431;28;8794;-62
2022/02/07 07:29:09;;;;;;;;;184.75;174.75;15.40;39.60;;;;;;4976186;28;8777;-62
2022/02/07 07:31:43;;;;;;;;;165.75;156.50;15.30;39.80;;;;;;4975911;28;8876;-62
2022/02/07 07:34:09;;;;;;;;;168.25;157.50;15.40;39.60;;;;;;4975655;28;9019;-62
2022/02/07 07:36:35;;;;;;;;;169.25;157.75;15.50;39.80;;;;;;4975979;28;8892;-62
2022/02/07 07:39:01;;;;;;;;;159.25;145.50;15.60;39.90;;;;;;4975627;28;9461;-62
2022/02/07 07:41:27;;;;;;;;;119.75;111.75;15.50;40.00;;;;;;4976005;28;8778;-62
2022/02/07 07:43:53;;;;;;;;;129.00;115.75;15.40;40.30;;;;;;4975591;28;8912;-62
2022/02/07 07:46:25;;;;;;;;;132.00;122.75;15.30;40.70;;;;;;4975753;28;8888;-61
2022/02/07 07:48:59;;;;;;;;;123.00;116.75;15.30;40.40;;;;;;4975594;28;9487;-61
2022/02/07 07:51:49;;;;;;;;;127.25;115.75;15.10;40.70;;;;;;4975629;28;8821;-62
2022/02/07 08:02:34;;;;;;;;;127.75;119.25;15.00;42.00;;;;;;4897186;29;8781;-62
2022/02/07 08:05:07;;;;;;;;;113.75;107.25;14.90;42.40;;;;;;4896779;29;8838;-62
2022/02/07 08:07:37;;;;;;;;;122.00;114.75;15.20;42.30;;;;;;4896799;29;8864;-61
2022/02/07 08:12:46;;;;;;;;;106.00;101.50;15.30;42.00;;;;;;4896989;29;8774;-62
2022/02/07 08:15:15;;;;;;;;;130.00;122.00;15.40;42.40;;;;;;4896983;29;8801;-62
2022/02/07 08:17:41;;;;;;;;;132.25;123.50;15.50;43.10;;;;;;4896922;29;8923;-62
2022/02/07 08:20:07;;;;;;;;;123.50;110.50;15.50;43.70;;;;;;4884724;29;9024;-62
2022/02/07 08:22:32;;;;;;;;;119.00;111.50;15.60;43.30;;;;;;4877599;29;8796;-62
2022/02/07 08:25:00;;;;;;;;;101.25;93.50;15.70;44.10;;;;;;4878287;29;8898;-62
2022/02/07 08:27:28;;;;;;;;;99.00;88.75;15.60;43.10;;;;;;4886628;29;8797;-62
2022/02/07 08:29:55;;;;;;;;;88.50;79.25;15.60;43.80;;;;;;4896829;29;8833;-62
2022/02/07 08:32:21;;;;;;;;;109.25;97.25;15.60;44.00;;;;;;4874372;29;8999;-62
2022/02/07 08:34:47;;;;;;;;;64.75;50.25;15.50;44.70;;;;;;4937976;29;8839;-62
2022/02/07 08:37:13;;;;;;;;;41.25;36.25;14.80;46.70;;;;;;4930456;29;8816;-62
2022/02/07 08:39:40;;;;;;;;;54.50;45.00;13.80;49.60;;;;;;4926427;29;8814;-62
2022/02/07 08:42:06;;;;;;;;;51.00;41.50;13.80;51.80;;;;;;4930425;29;8811;-63
2022/02/07 08:44:32;;;;;;;;;50.00;41.75;13.80;51.90;;;;;;4922445;29;8945;-62
2022/02/07 08:46:58;;;;;;;;;22.25;19.50;14.00;52.10;;;;;;4936665;29;8808;-62
2022/02/07 08:49:24;;;;;;;;;29.50;29.00;13.80;52.20;;;;;;4936676;29;8823;-62
2022/02/07 08:51:51;;;;;;;;;25.00;23.25;13.60;54.80;;;;;;4920411;29;8875;-61
2022/02/07 08:54:24;;;;;;;;;40.00;36.50;14.00;54.90;;;;;;4930181;29;8822;-62
2022/02/07 08:57:02;;;;;;;;;44.75;37.00;14.70;53.30;;;;;;4930030;29;8808;-61
2022/02/07 08:59:40;;;;;;;;;47.25;40.25;14.90;51.00;;;;;;4923992;29;8830;-62
2022/02/07 09:04:54;;;;;;;;;37.50;35.75;14.80;50.40;;;;;;4927752;29;9456;-62
2022/02/07 09:07:26;;;;;;;;;37.50;33.25;14.70;52.60;;;;;;4924725;29;8810;-62
2022/02/07 09:09:53;;;;;;;;;44.75;39.25;14.50;53.00;;;;;;4922741;29;8802;-62
2022/02/07 09:12:19;;;;;;;;;40.25;35.50;14.70;53.10;;;;;;4923618;29;8815;-62
2022/02/07 09:14:58;;;;;;;;;53.25;44.00;15.10;53.20;;;;;;4928519;29;8832;-62
2022/02/07 09:17:24;;;;;;;;;62.25;51.50;15.50;52.30;;;;;;4918656;29;8826;-62
2022/02/07 09:19:51;;;;;;;;;60.25;49.75;15.80;51.50;;;;;;4925538;29;8917;-62
2022/02/07 09:22:16;;;;;;;;;66.00;50.50;16.00;51.70;;;;;;4931622;29;8807;-62
2022/02/07 09:24:42;;;;;;;;;65.25;51.00;16.10;51.20;;;;;;4930839;29;9517;-62
2022/02/07 09:27:08;;;;;;;;;74.00;60.00;16.10;51.00;;;;;;4929767;29;9425;-62
2022/02/07 09:29:34;;;;;;;;;78.00;63.25;16.10;50.90;;;;;;4931520;29;8788;-62
2022/02/07 09:32:02;;;;;;;;;76.75;62.50;16.10;51.00;;;;;;4933380;28;8819;-62
2022/02/07 09:34:28;;;;;;;;;77.00;62.00;16.10;51.60;;;;;;4948941;28;8858;-61
2022/02/07 09:36:54;;;;;;;;;76.75;66.25;15.90;51.20;;;;;;4949071;28;8794;-62
2022/02/07 09:39:23;;;;;;;;;76.25;62.50;15.60;52.50;;;;;;4949277;28;8787;-62
2022/02/07 09:41:52;;;;;;;;;75.00;60.00;15.30;53.20;;;;;;4956986;28;8982;-62
2022/02/07 09:44:21;;;;;;;;;72.00;56.00;15.10;53.60;;;;;;4955828;28;8792;-62
2022/02/07 09:46:47;;;;;;;;;55.25;43.25;14.90;54.50;;;;;;4939420;29;8795;-62
2022/02/07 09:49:17;;;;;;;;;30.00;28.25;14.00;57.70;;;;;;4939244;29;8812;-62
2022/02/07 09:51:45;;;;;;;;;17.00;17.00;13.10;65.50;;;;;;4939508;29;8787;-62
2022/02/07 09:54:15;;;;;;;;;20.33;19.00;12.30;70.60;;;;;;4939357;29;8842;-62
2022/02/07 09:56:41;;;;;;;;;26.33;24.33;12.00;74.60;;;;;;4954883;28;8786;-62
2022/02/07 09:59:08;;;;;;;;;13.00;13.00;11.40;83.30;;;;;;4977536;28;8794;-62
2022/02/07 10:01:37;;;;;;;;;3.00;3.00;10.70;78.80;;;;;;4977895;28;8825;-62
2022/02/07 10:06:53;;;;;;;;;9.00;9.00;9.50;87.80;;;;;;4977529;28;9434;-62
2022/02/07 10:12:07;;;;;;;;;14.33;10.33;9.90;84.10;;;;;;4977742;28;8782;-62
2022/02/07 10:14:47;;;;;;;;;11.00;11.00;9.90;79.80;;;;;;4977143;28;8859;-62
2022/02/07 10:43:13;;;;;;;;;15.50;14.25;10.40;74.10;;;;;;4877724;29;9454;-62
2022/02/07 10:45:51;;;;;;;;;19.25;18.75;10.30;74.40;;;;;;4879101;29;9600;-62
2022/02/07 10:48:37;;;;;;;;;13.00;10.75;10.00;75.00;;;;;;4879168;29;8815;-62
2022/02/07 10:51:25;;;;;;;;;13.50;13.50;10.00;71.00;;;;;;4879137;29;8813;-62
2022/02/07 10:53:54;;;;;;;;;19.75;18.75;9.90;69.30;;;;;;4877934;29;8968;-62
2022/02/07 10:56:45;;;;;;;;;17.25;17.00;10.40;65.80;;;;;;4879474;29;8815;-63
2022/02/07 10:59:17;;;;;;;;;23.00;20.50;10.90;62.80;;;;;;4902514;28;8934;-63
2022/02/07 11:04:19;;;;;;;;;15.50;15.50;11.10;59.70;;;;;;4947898;28;8787;-63
2022/02/07 11:06:48;;;;;;;;;17.75;15.50;11.10;58.40;;;;;;4947706;28;8809;-62
2022/02/07 11:11:49;;;;;;;;;15.75;15.00;11.30;58.40;;;;;;4956068;28;8819;-62
2022/02/07 11:20:15;;;;;;;;;17.00;17.00;11.30;56.30;;;;;;4949616;28;8756;-62
2022/02/07 11:23:06;;;;;;;;;15.75;14.50;11.40;55.70;;;;;;4950211;28;8808;-62
2022/02/07 11:28:24;;;;;;;;;20.00;18.00;12.30;54.50;;;;;;4937740;29;8807;-63
2022/02/07 11:30:53;;;;;;;;;20.25;19.50;12.50;53.80;;;;;;4937150;29;9061;-63
2022/02/07 11:36:25;;;;;;;;;15.33;13.00;12.80;51.00;;;;;;4937683;29;8871;-62
2022/02/07 11:38:56;;;;;;;;;8.67;8.33;12.70;51.80;;;;;;4937281;29;8791;-63
2022/02/07 11:41:22;;;;;;;;;8.67;8.33;12.50;51.90;;;;;;4936235;29;8818;-62
2022/02/07 11:43:48;;;;;;;;;6.00;6.00;12.30;51.80;;;;;;4940364;29;8825;-63
2022/02/07 11:46:14;;;;;;;;;5.00;5.00;11.90;53.10;;;;;;4952909;28;8784;-62
2022/02/07 11:48:44;;;;;;;;;6.67;6.00;11.70;55.80;;;;;;4955404;28;8795;-62
2022/02/07 11:51:28;;;;;;;;;4.00;4.00;11.80;56.60;;;;;;4955054;28;8788;-62
2022/02/07 11:54:03;;;;;;;;;5.33;5.33;11.50;58.10;;;;;;4955988;28;8889;-62
2022/02/07 11:56:48;;;;;;;;;3.00;3.00;11.10;61.20;;;;;;4962576;28;8782;-62
2022/02/07 11:59:18;;;;;;;;;4.00;4.00;10.80;62.70;;;;;;4975620;28;8880;-62
2022/02/07 12:02:05;;;;;;;;;2.00;2.00;11.10;62.40;;;;;;4976065;28;8829;-63
2022/02/07 12:04:40;;;;;;;;;4.00;4.00;10.80;63.70;;;;;;4975795;28;8797;-62
2022/02/07 12:07:18;;;;;;;;;5.67;4.00;10.90;63.70;;;;;;4975651;28;8897;-62
2022/02/07 12:12:40;;;;;;;;;3.33;3.33;11.10;63.30;;;;;;4975537;28;8766;-62
2022/02/07 12:15:13;;;;;;;;;8.67;6.33;11.20;63.30;;;;;;4975565;28;8801;-62
2022/02/07 12:17:40;;;;;;;;;13.67;13.67;10.80;65.40;;;;;;4975533;28;8844;-62
2022/02/07 12:20:08;;;;;;;;;12.33;12.33;11.10;64.80;;;;;;4958535;28;9470;-62
2022/02/07 12:22:54;;;;;;;;;3.67;3.67;11.30;63.90;;;;;;4943229;28;9435;-62
2022/02/07 12:25:36;;;;;;;;;11.00;9.33;10.90;63.00;;;;;;4949206;29;9584;-62
2022/02/07 12:28:06;;;;;;;;;14.33;14.33;11.10;64.10;;;;;;4943949;28;8794;-62
2022/02/07 12:30:46;;;;;;;;;15.75;14.25;10.80;64.10;;;;;;4947460;29;8816;-62
2022/02/07 12:33:14;;;;;;;;;15.00;14.50;10.70;64.80;;;;;;4948051;29;8827;-62
2022/02/07 12:35:40;;;;;;;;;15.00;15.00;10.70;64.30;;;;;;4945780;29;8800;-62
2022/02/07 12:38:06;;;;;;;;;9.00;9.00;10.80;64.70;;;;;;4956044;28;9509;-62
2022/02/07 12:40:33;;;;;;;;;8.67;8.67;10.80;64.30;;;;;;4956078;29;8788;-62
2022/02/07 12:43:04;;;;;;;;;8.00;6.33;10.70;65.50;;;;;;4955912;29;8792;-62
2022/02/07 12:45:31;;;;;;;;;7.00;7.00;10.90;64.30;;;;;;4955999;29;8768;-64
2022/02/07 12:48:04;;;;;;;;;6.00;6.00;10.70;64.90;;;;;;4955773;28;8784;-64
2022/02/07 12:50:30;;;;;;;;;3.33;3.33;10.70;65.30;;;;;;4956126;28;8793;-62
2022/02/07 12:52:57;;;;;;;;;5.67;5.67;10.30;64.50;;;;;;4958235;28;8788;-65
2022/02/07 12:55:23;;;;;;;;;10.00;10.00;10.50;65.90;;;;;;4955233;28;8875;-63
2022/02/07 12:57:49;;;;;;;;;11.33;11.33;10.30;67.60;;;;;;4952125;28;8779;-62
2022/02/07 13:00:20;;;;;;;;;3.67;3.67;10.70;66.10;;;;;;4951788;28;8820;-62
2022/02/07 13:02:48;;;;;;;;;8.00;8.00;10.20;64.90;;;;;;4948786;29;8795;-62
2022/02/07 13:05:19;;;;;;;;;8.67;8.67;10.30;66.40;;;;;;4945430;28;8803;-62
2022/02/07 13:07:48;;;;;;;;;11.00;10.00;10.80;64.60;;;;;;4958134;28;8769;-63
2022/02/07 13:10:21;;;;;;;;;13.33;12.00;10.90;63.60;;;;;;4950258;28;8807;-62
2022/02/07 13:13:16;;;;;;;;;7.00;7.00;10.90;63.30;;;;;;4946803;28;8898;-62
2022/02/07 13:15:42;;;;;;;;;9.33;6.00;10.90;63.20;;;;;;4949486;28;8907;-62
2022/02/07 13:18:15;;;;;;;;;4.67;4.67;10.70;64.10;;;;;;4950697;28;8815;-62
2022/02/07 13:20:43;;;;;;;;;11.00;9.00;10.70;64.50;;;;;;4949006;28;8832;-62
2022/02/07 13:23:14;;;;;;;;;11.00;11.00;10.60;65.20;;;;;;4948252;28;8796;-63
2022/02/07 13:25:48;;;;;;;;;12.33;12.33;10.60;65.80;;;;;;4948549;28;8811;-62
2022/02/07 13:28:23;;;;;;;;;12.00;8.67;11.00;63.20;;;;;;4946380;28;9263;-63
2022/02/07 13:30:54;;;;;;;;;13.00;11.33;11.10;62.10;;;;;;4951470;28;8879;-63
2022/02/07 13:33:20;;;;;;;;;10.00;10.00;11.30;61.90;;;;;;4944213;28;8855;-63
2022/02/07 13:35:51;;;;;;;;;15.25;14.25;11.50;60.60;;;;;;4945972;28;8782;-63
2022/02/07 13:38:18;;;;;;;;;18.75;18.75;11.60;59.70;;;;;;4952804;28;8776;-62
2022/02/07 13:40:49;;;;;;;;;37.25;32.50;12.10;58.60;;;;;;4943181;28;8802;-63
2022/02/07 13:43:28;;;;;;;;;35.00;32.25;12.20;56.60;;;;;;4950116;28;8861;-63
2022/02/07 13:46:02;;;;;;;;;24.25;20.75;12.10;52.50;;;;;;4947856;29;8810;-63
2022/02/07 13:48:29;;;;;;;;;22.25;20.75;12.10;49.70;;;;;;4949032;28;8883;-63
2022/02/07 13:50:57;;;;;;;;;24.50;22.50;12.10;47.80;;;;;;4942831;28;9527;-63
2022/02/07 13:53:25;;;;;;;;;27.50;19.00;12.00;47.70;;;;;;4947670;28;8842;-65
2022/02/07 13:55:57;;;;;;;;;19.33;16.33;12.20;47.40;;;;;;4945377;28;8904;-64
2022/02/07 13:58:40;;;;;;;;;17.33;15.00;11.90;45.20;;;;;;4945116;28;8798;-63
2022/02/07 14:01:13;;;;;;;;;19.00;17.00;11.60;45.70;;;;;;4947551;28;8816;-63
2022/02/07 14:03:43;;;;;;;;;20.50;20.50;11.30;46.00;;;;;;4948603;28;8802;-62
2022/02/07 14:06:14;;;;;;;;;24.75;22.75;11.10;46.50;;;;;;4948081;28;8796;-66
2022/02/07 14:08:44;;;;;;;;;24.50;22.75;11.40;46.90;;;;;;4945531;28;9454;-67
2022/02/07 14:11:22;;;;;;;;;10.75;8.25;11.80;46.20;;;;;;4958110;28;8792;-63
2022/02/07 14:13:50;;;;;;;;;34.75;30.00;12.30;45.50;;;;;;4958232;28;8875;-63
2022/02/07 14:16:18;;;;;;;;;31.75;31.00;12.50;44.90;;;;;;4950290;28;8807;-62
2022/02/07 14:18:48;;;;;;;;;17.75;16.75;12.70;45.30;;;;;;4938860;29;8795;-66
2022/02/07 14:21:18;;;;;;;;;19.67;18.00;12.60;45.60;;;;;;4944329;28;8894;-64
2022/02/07 14:23:46;;;;;;;;;11.33;9.67;12.70;46.30;;;;;;4950144;28;8794;-66
2022/02/07 14:26:16;;;;;;;;;10.00;9.67;12.60;46.40;;;;;;4962174;28;9420;-66
2022/02/07 14:28:43;;;;;;;;;14.00;11.67;12.30;45.50;;;;;;4952265;28;8842;-64
2022/02/07 14:31:11;;;;;;;;;11.00;11.00;12.50;46.30;;;;;;4946359;28;9504;-62
2022/02/07 14:33:42;;;;;;;;;9.33;9.33;12.10;46.50;;;;;;4950394;28;8840;-62
2022/02/07 14:36:09;;;;;;;;;11.67;11.00;11.90;46.90;;;;;;4947436;29;8806;-62
2022/02/07 14:38:35;;;;;;;;;14.00;14.00;11.90;48.10;;;;;;4949196;28;8811;-61
2022/02/07 14:41:01;;;;;;;;;15.00;13.67;11.90;47.40;;;;;;4954369;28;8808;-61
2022/02/07 14:43:32;;;;;;;;;14.00;14.00;11.80;47.00;;;;;;4955542;28;8777;-61
2022/02/07 14:48:41;;;;;;;;;15.50;14.75;12.40;46.00;;;;;;4955548;28;8768;-61
2022/02/07 14:51:08;;;;;;;;;15.75;14.00;12.40;45.00;;;;;;4954386;28;8810;-61
2022/02/07 14:53:36;;;;;;;;;16.75;15.75;12.40;44.80;;;;;;4954678;28;8918;-62
2022/02/07 14:56:03;;;;;;;;;14.75;13.00;12.40;45.00;;;;;;4953081;28;8789;-60
2022/02/07 14:58:30;;;;;;;;;20.75;20.00;12.40;44.20;;;;;;4952561;28;8772;-61
2022/02/07 15:00:56;;;;;;;;;20.00;18.00;12.30;44.50;;;;;;4952889;28;8801;-61
2022/02/07 15:03:23;;;;;;;;;18.00;17.25;12.40;44.90;;;;;;4955681;28;9414;-61
2022/02/07 15:05:53;;;;;;;;;20.75;19.75;12.40;44.20;;;;;;4953353;28;8795;-62
2022/02/07 15:08:21;;;;;;;;;22.25;19.25;12.30;44.00;;;;;;4950490;28;8764;-62
2022/02/07 15:10:47;;;;;;;;;23.75;19.75;12.20;44.40;;;;;;4954679;28;8773;-61
2022/02/07 15:13:13;;;;;;;;;29.25;24.00;12.30;44.10;;;;;;4954785;28;8772;-62
2022/02/07 15:15:39;;;;;;;;;30.25;27.00;12.50;43.80;;;;;;4954963;28;8811;-61
2022/02/07 15:18:06;;;;;;;;;23.25;20.00;12.20;43.50;;;;;;4955517;28;8788;-61
2022/02/07 15:20:34;;;;;;;;;21.00;21.00;12.00;43.30;;;;;;4953139;28;8761;-60
2022/02/07 15:23:01;;;;;;;;;25.00;24.00;12.00;43.70;;;;;;4953140;28;8832;-61
2022/02/07 15:25:31;;;;;;;;;27.00;24.50;12.20;43.60;;;;;;4948433;28;8795;-61